Time;durP1;ratioP1;P1;durP2;ratioP2;P2;SDS_P1;SDS_P2;PMS_P1;PMS_P2;Temp;Humidity;BMP_temperature;BMP_pressure;BME280_temperature;BME280_humidity;BME280_pressure;Samples;Min_cycle;Max_cycle;Signal;HPM_P1;HPM_P2
2023/07/25 00:01:50;;;;;;;1999.90;999.90;;;15.30;99.90;;;;;;5076892;28;20033;-72
2023/07/25 00:04:15;;;;;;;1999.90;999.90;;;15.20;99.90;;;;;;5076940;28;20049;-72
2023/07/25 00:06:41;;;;;;;1999.90;999.90;;;15.20;99.90;;;;;;5076651;28;20063;-72
2023/07/25 00:09:06;;;;;;;1999.90;999.90;;;15.20;99.90;;;;;;5076658;28;20059;-71
2023/07/25 00:11:32;;;;;;;1999.90;999.90;;;15.20;99.90;;;;;;5076794;28;20029;-72
2023/07/25 00:13:57;;;;;;;1999.90;999.90;;;15.20;99.90;;;;;;5076512;28;20045;-72
2023/07/25 00:16:23;;;;;;;1999.90;999.90;;;15.30;99.90;;;;;;5076688;28;20025;-72
2023/07/25 00:18:51;;;;;;;1999.90;999.90;;;15.30;99.90;;;;;;5076013;28;20062;-71
2023/07/25 00:21:16;;;;;;;1999.90;999.90;;;15.40;99.90;;;;;;5076306;28;20037;-72
2023/07/25 00:23:42;;;;;;;1999.90;999.90;;;15.50;99.90;;;;;;5076438;28;20037;-71
2023/07/25 00:26:07;;;;;;;1999.90;999.90;;;15.50;99.90;;;;;;5076463;28;20075;-71
2023/07/25 00:28:33;;;;;;;1999.90;999.90;;;15.60;99.90;;;;;;5037945;28;20449;-71
2023/07/25 00:31:06;;;;;;;1999.90;999.90;;;15.60;99.90;;;;;;5055854;28;20075;-71
2023/07/25 00:33:31;;;;;;;1999.90;999.90;;;15.70;99.90;;;;;;5056426;28;20030;-72
2023/07/25 00:35:57;;;;;;;1999.90;999.90;;;15.70;99.90;;;;;;5056471;28;20033;-71
2023/07/25 00:38:22;;;;;;;1999.90;999.90;;;15.80;99.90;;;;;;5055661;28;20042;-72
2023/07/25 00:40:48;;;;;;;1999.90;999.90;;;15.80;99.90;;;;;;5057210;28;20029;-71
2023/07/25 00:43:13;;;;;;;1999.90;999.90;;;15.80;99.90;;;;;;5056631;28;20044;-71
2023/07/25 00:45:39;;;;;;;1999.90;999.90;;;15.90;99.90;;;;;;5057823;28;20025;-71
2023/07/25 00:48:05;;;;;;;1999.90;999.90;;;15.90;99.90;;;;;;5063550;28;20063;-71
2023/07/25 00:50:30;;;;;;;1999.90;999.90;;;15.90;99.90;;;;;;5038046;28;20084;-71
2023/07/25 00:52:58;;;;;;;1999.90;999.90;;;15.90;99.90;;;;;;5055696;28;20041;-71
2023/07/25 00:55:23;;;;;;;1999.90;999.90;;;15.80;99.90;;;;;;5058408;28;20040;-71
2023/07/25 00:57:50;;;;;;;1999.90;999.90;;;15.70;99.90;;;;;;5075189;28;20063;-71
2023/07/25 01:00:16;;;;;;;1999.90;999.90;;;15.70;99.90;;;;;;5076612;28;20792;-71
2023/07/25 01:02:41;;;;;;;1999.90;999.90;;;15.60;99.90;;;;;;5075890;28;20064;-71
2023/07/25 01:05:07;;;;;;;1999.90;999.90;;;15.50;99.90;;;;;;5057571;28;20041;-71
2023/07/25 01:07:34;;;;;;;1999.90;999.90;;;15.40;99.90;;;;;;5075824;28;20029;-72
2023/07/25 01:09:59;;;;;;;1999.90;999.90;;;15.40;99.90;;;;;;5073144;28;20036;-72
2023/07/25 01:12:25;;;;;;;1999.90;999.90;;;15.40;99.90;;;;;;5055663;28;20037;-72
2023/07/25 01:14:50;;;;;;;1999.90;999.90;;;15.40;99.90;;;;;;5074942;28;20107;-71
2023/07/25 01:17:20;;;;;;;1999.90;999.90;;;15.40;99.90;;;;;;5076016;28;20115;-71
2023/07/25 01:19:46;;;;;;;1999.90;999.90;;;15.40;99.90;;;;;;5075242;28;20048;-72
2023/07/25 01:22:12;;;;;;;1999.90;999.90;;;15.30;99.90;;;;;;5057035;28;20574;-72
2023/07/25 01:24:42;;;;;;;1999.90;999.90;;;15.30;99.90;;;;;;5064796;28;20099;-71
2023/07/25 01:27:08;;;;;;;1999.90;999.90;;;15.20;99.90;;;;;;5071325;28;20037;-71
2023/07/25 01:29:34;;;;;;;1999.90;999.90;;;15.10;99.90;;;;;;5075312;28;20029;-72
2023/07/25 01:31:59;;;;;;;1999.90;999.90;;;15.00;99.90;;;;;;5075073;28;20029;-72
2023/07/25 01:34:25;;;;;;;1999.90;999.90;;;15.10;99.90;;;;;;5075559;28;20029;-71
2023/07/25 01:36:50;;;;;;;1999.90;999.90;;;15.10;99.90;;;;;;5055190;28;20033;-72
2023/07/25 01:39:16;;;;;;;1999.90;999.90;;;15.10;99.90;;;;;;5055077;28;20479;-71
2023/07/25 01:41:43;;;;;;;1999.90;999.90;;;15.00;99.90;;;;;;5055127;28;20033;-71
2023/07/25 01:44:08;;;;;;;1999.90;999.90;;;15.10;99.90;;;;;;5037076;28;20065;-71
2023/07/25 01:46:34;;;;;;;1999.90;999.90;;;15.10;99.90;;;;;;5063359;28;20138;-71
2023/07/25 01:49:00;;;;;;;1999.90;999.90;;;15.10;99.90;;;;;;5054749;28;20030;-71
2023/07/25 01:51:26;;;;;;;1999.90;999.90;;;15.20;99.90;;;;;;5054876;28;20033;-72
2023/07/25 01:53:53;;;;;;;1999.90;999.90;;;15.20;99.90;;;;;;5054843;28;20513;-71
2023/07/25 01:56:22;;;;;;;1999.90;999.90;;;15.30;99.90;;;;;;5069685;28;20487;-72
2023/07/25 01:58:47;;;;;;;1999.90;999.90;;;15.30;99.90;;;;;;5074435;28;20119;-71
2023/07/25 02:01:13;;;;;;;1999.90;999.90;;;15.40;99.90;;;;;;5075054;28;20131;-72
2023/07/25 02:03:38;;;;;;;1999.90;999.90;;;15.40;99.90;;;;;;5075190;28;20122;-72
2023/07/25 02:06:04;;;;;;;1999.90;999.90;;;15.30;99.90;;;;;;5074746;28;20041;-72
2023/07/25 02:08:30;;;;;;;1999.90;999.90;;;15.30;99.90;;;;;;5073337;28;20033;-72
2023/07/25 02:10:55;;;;;;;1999.90;999.90;;;15.20;99.90;;;;;;5056407;28;20397;-72
2023/07/25 02:13:21;;;;;;;1999.90;999.90;;;15.10;99.90;;;;;;5074629;28;20091;-72
2023/07/25 02:15:46;;;;;;;1999.90;999.90;;;15.10;99.90;;;;;;5074725;28;20083;-72
2023/07/25 02:18:12;;;;;;;1999.90;999.90;;;15.00;99.90;;;;;;5074510;28;20784;-71
2023/07/25 02:20:38;;;;;;;1999.90;999.90;;;15.00;99.90;;;;;;5074820;28;20040;-70
2023/07/25 02:23:03;;;;;;;1999.90;999.90;;;15.10;99.90;;;;;;5074519;28;20455;-69
2023/07/25 02:25:29;;;;;;;1999.90;999.90;;;15.20;99.90;;;;;;5074293;28;20045;-70
2023/07/25 02:27:55;;;;;;;1999.90;999.90;;;15.30;99.90;;;;;;5074530;28;20035;-71
2023/07/25 02:30:21;;;;;;;1999.90;999.90;;;15.30;99.90;;;;;;5074905;28;21115;-72
2023/07/25 02:32:47;;;;;;;1999.90;999.90;;;15.30;99.90;;;;;;5074064;28;20041;-72
2023/07/25 02:35:14;;;;;;;1999.90;999.90;;;15.30;99.90;;;;;;5074269;28;20037;-71
2023/07/25 02:37:40;;;;;;;1999.90;999.90;;;15.30;99.90;;;;;;5074193;28;20033;-72
2023/07/25 02:40:09;;;;;;;1999.90;999.90;;;15.40;99.90;;;;;;5074617;28;20467;-73
2023/07/25 02:42:35;;;;;;;1999.90;999.90;;;15.40;99.90;;;;;;5074009;28;20037;-72
2023/07/25 02:45:00;;;;;;;1999.90;999.90;;;15.40;99.90;;;;;;5055732;28;20036;-72
2023/07/25 02:47:26;;;;;;;1999.90;999.90;;;15.50;99.90;;;;;;5074430;28;20036;-71
2023/07/25 02:49:52;;;;;;;1999.90;999.90;;;15.50;99.90;;;;;;5055963;28;20106;-72
2023/07/25 02:52:18;;;;;;;1999.90;999.90;;;15.60;99.90;;;;;;5073991;28;20033;-72
2023/07/25 02:54:44;;;;;;;1999.90;999.90;;;15.60;99.90;;;;;;5056619;28;20037;-72
2023/07/25 02:57:09;;;;;;;1999.90;999.90;;;15.70;99.90;;;;;;5053789;28;20062;-71
2023/07/25 02:59:35;;;;;;;1999.90;999.90;;;15.70;99.90;;;;;;5053858;28;20050;-71
2023/07/25 03:02:00;;;;;;;1999.90;999.90;;;15.70;99.90;;;;;;5053670;28;20033;-71
2023/07/25 03:04:26;;;;;;;1999.90;999.90;;;15.70;99.90;;;;;;5053938;28;20037;-71
2023/07/25 03:06:51;;;;;;;1999.90;999.90;;;15.70;99.90;;;;;;5035199;28;20034;-71
2023/07/25 03:09:17;;;;;;;1999.90;999.90;;;15.80;99.90;;;;;;5053920;28;20510;-72
2023/07/25 03:11:45;;;;;;;1999.90;999.90;;;15.80;99.90;;;;;;5053457;28;20415;-71
2023/07/25 03:14:10;;;;;;;1999.90;999.90;;;15.80;99.90;;;;;;5035914;28;20357;-71
2023/07/25 03:16:36;;;;;;;1999.90;999.90;;;15.70;99.90;;;;;;5053535;28;20040;-72
2023/07/25 03:19:01;;;;;;;1999.90;999.90;;;15.70;99.90;;;;;;5053898;28;20064;-71
2023/07/25 03:21:27;;;;;;;1999.90;999.90;;;15.50;99.90;;;;;;5035284;28;20033;-71
2023/07/25 03:23:52;;;;;;;1999.90;999.90;;;15.50;99.90;;;;;;5053751;28;20040;-71
2023/07/25 03:26:18;;;;;;;1999.90;999.90;;;15.60;99.90;;;;;;5053525;28;20070;-71
2023/07/25 03:28:43;;;;;;;1999.90;999.90;;;15.60;99.90;;;;;;5053871;28;20037;-71
2023/07/25 03:31:09;;;;;;;1999.90;999.90;;;15.60;99.90;;;;;;5064642;28;20032;-72
2023/07/25 03:33:35;;;;;;;1999.90;999.90;;;15.70;99.90;;;;;;5073842;28;20037;-71
2023/07/25 03:36:00;;;;;;;1999.90;999.90;;;15.60;99.90;;;;;;5073650;28;20036;-71
2023/07/25 03:38:26;;;;;;;1999.90;999.90;;;15.70;99.90;;;;;;5052549;28;20086;-71
2023/07/25 03:40:51;;;;;;;1999.90;999.90;;;15.60;99.90;;;;;;5053455;28;20061;-71
2023/07/25 03:43:17;;;;;;;1999.90;999.90;;;15.60;99.90;;;;;;5053568;28;20116;-71
2023/07/25 03:45:42;;;;;;;1999.90;999.90;;;15.60;99.90;;;;;;5053832;28;20033;-72
2023/07/25 03:48:09;;;;;;;1999.90;999.90;;;15.50;99.90;;;;;;5056592;28;20487;-72
2023/07/25 03:50:34;;;;;;;1999.90;999.90;;;15.50;99.90;;;;;;5073690;28;20123;-72
2023/07/25 03:53:04;;;;;;;1999.90;999.90;;;15.50;99.90;;;;;;5073439;28;20485;-71
2023/07/25 03:55:29;;;;;;;1999.90;999.90;;;15.50;99.90;;;;;;5073255;28;20040;-71
2023/07/25 03:57:55;;;;;;;1999.90;999.90;;;15.50;99.90;;;;;;5071302;28;20056;-72
2023/07/25 04:00:20;;;;;;;1999.90;999.90;;;15.60;99.90;;;;;;5053193;28;20110;-71
2023/07/25 04:02:46;;;;;;;1999.90;999.90;;;15.60;99.90;;;;;;5053261;28;20411;-71
2023/07/25 04:05:11;;;;;;;1999.90;999.90;;;15.70;99.90;;;;;;5053515;28;20040;-72
2023/07/25 04:07:37;;;;;;;1999.90;999.90;;;15.60;99.90;;;;;;5053249;28;20069;-71
2023/07/25 04:10:06;;;;;;;1999.90;999.90;;;15.60;99.90;;;;;;5053307;28;20395;-72
2023/07/25 04:12:31;;;;;;;1999.90;999.90;;;15.60;99.90;;;;;;5053098;28;20044;-72
2023/07/25 04:14:57;;;;;;;1999.90;999.90;;;15.60;99.90;;;;;;5053099;28;20446;-71
2023/07/25 04:17:23;;;;;;;1999.90;999.90;;;15.60;99.90;;;;;;5036262;28;20033;-72
2023/07/25 04:19:49;;;;;;;1999.90;999.90;;;15.60;99.90;;;;;;5056225;28;20045;-71
2023/07/25 04:22:14;;;;;;;1999.90;999.90;;;15.70;99.90;;;;;;5038010;28;20034;-71
2023/07/25 04:24:40;;;;;;;1999.90;999.90;;;15.70;99.90;;;;;;5038340;28;20057;-71
2023/07/25 04:27:05;;;;;;;1999.90;999.90;;;15.70;99.90;;;;;;5056273;28;20041;-72
2023/07/25 04:29:31;;;;;;;1999.90;999.90;;;15.60;99.90;;;;;;5056479;28;20041;-71
2023/07/25 04:31:56;;;;;;;1999.90;999.90;;;15.70;99.90;;;;;;5056005;28;20033;-72
2023/07/25 04:34:22;;;;;;;1999.90;999.90;;;15.60;99.90;;;;;;5056381;28;20136;-72
2023/07/25 04:36:48;;;;;;;1999.90;999.90;;;15.70;99.90;;;;;;5038396;28;20076;-71
2023/07/25 04:39:13;;;;;;;1999.90;999.90;;;15.70;99.90;;;;;;5037734;28;20041;-71
2023/07/25 04:41:39;;;;;;;1999.90;999.90;;;15.70;99.90;;;;;;5057044;28;20034;-78
2023/07/25 04:44:04;;;;;;;1999.90;999.90;;;15.80;99.90;;;;;;5057965;28;20470;-78
2023/07/25 04:46:30;;;;;;;1999.90;999.90;;;15.80;99.90;;;;;;5039513;28;20030;-78
2023/07/25 04:48:56;;;;;;;1999.90;999.90;;;15.90;99.90;;;;;;5057231;28;20029;-78
2023/07/25 04:51:22;;;;;;;1999.90;999.90;;;15.90;99.90;;;;;;5038886;28;20057;-78
2023/07/25 04:53:47;;;;;;;1999.90;999.90;;;15.90;99.90;;;;;;5039393;28;20125;-78
2023/07/25 04:56:13;;;;;;;1999.90;999.90;;;15.80;99.90;;;;;;5069613;28;20104;-79
2023/07/25 04:58:40;;;;;;;1999.90;999.90;;;16.00;99.90;;;;;;5057750;28;20041;-78
2023/07/25 05:01:07;;;;;;;1999.90;999.90;;;16.00;99.90;;;;;;5076540;28;20025;-79
2023/07/25 05:03:33;;;;;;;1999.90;999.90;;;16.10;99.90;;;;;;5075653;28;20029;-78
2023/07/25 05:05:59;;;;;;;1999.90;999.90;;;16.00;99.90;;;;;;5077209;28;20445;-78
2023/07/25 05:08:24;;;;;;;1999.90;999.90;;;16.00;99.90;;;;;;5038501;28;20033;-78
2023/07/25 05:10:53;;;;;;;1999.90;999.90;;;16.10;99.90;;;;;;5055803;28;20075;-78
2023/07/25 05:13:19;;;;;;;1999.90;999.90;;;16.10;99.90;;;;;;5056263;28;20091;-78
2023/07/25 05:15:44;;;;;;;1999.90;999.90;;;16.10;99.90;;;;;;5056498;28;20614;-79
2023/07/25 05:18:10;;;;;;;1999.90;999.90;;;16.20;99.90;;;;;;5054463;28;20049;-73
2023/07/25 05:20:35;;;;;;;1999.90;999.90;;;16.10;99.90;;;;;;5055831;28;20104;-69
2023/07/25 05:23:01;;;;;;;1999.90;999.90;;;16.30;99.90;;;;;;5055445;28;20037;-69
2023/07/25 05:25:27;;;;;;;1999.90;999.90;;;16.30;99.90;;;;;;5055668;28;20048;-79
2023/07/25 05:27:52;;;;;;;1999.90;999.90;;;16.30;99.90;;;;;;5037065;28;20044;-73
2023/07/25 05:30:18;;;;;;;1999.90;999.90;;;16.40;99.90;;;;;;5055771;28;20033;-70
2023/07/25 05:32:44;;;;;;;1999.90;999.90;;;16.30;99.90;;;;;;5055216;28;20033;-70
2023/07/25 05:35:09;;;;;;;1999.90;999.90;;;16.40;99.90;;;;;;5055502;28;20092;-70
2023/07/25 05:37:39;;;;;;;1999.90;999.90;;;16.40;99.90;;;;;;5055281;28;20087;-70
2023/07/25 05:40:06;;;;;;;1999.90;999.90;;;16.30;99.90;;;;;;5055317;28;20503;-70
2023/07/25 05:42:32;;;;;;;1999.90;999.90;;;16.40;99.90;;;;;;5054919;28;20515;-70
2023/07/25 05:44:59;;;;;;;1999.90;999.90;;;16.40;99.90;;;;;;5055087;28;20116;-72
2023/07/25 05:47:25;;;;;;;1999.90;999.90;;;16.30;99.90;;;;;;5055099;28;20056;-72
2023/07/25 05:49:51;;;;;;;1999.90;999.90;;;16.40;99.90;;;;;;5055285;28;20060;-70
2023/07/25 05:52:17;;;;;;;1999.90;999.90;;;16.50;99.90;;;;;;5055217;28;20056;-73
2023/07/25 05:54:44;;;;;;;1999.90;999.90;;;16.70;99.90;;;;;;5055345;28;20040;-78
2023/07/25 05:57:09;;;;;;;1999.90;999.90;;;16.70;99.90;;;;;;5055012;28;20040;-73
2023/07/25 05:59:35;;;;;;;1999.90;999.90;;;16.80;99.90;;;;;;5054825;28;20041;-72
2023/07/25 06:02:02;;;;;;;1999.90;999.90;;;16.80;99.90;;;;;;5054590;28;20029;-74
2023/07/25 06:04:32;;;;;;;1999.90;999.90;;;16.90;99.90;;;;;;5036749;28;20033;-77
2023/07/25 06:06:58;;;;;;;1999.90;999.90;;;17.10;99.90;;;;;;5037020;28;20037;-71
2023/07/25 06:09:23;;;;;;;1999.90;999.90;;;17.00;99.90;;;;;;5054735;28;20175;-70
2023/07/25 06:11:49;;;;;;;1999.90;999.90;;;16.90;99.90;;;;;;5054630;28;20034;-71
2023/07/25 06:14:14;;;;;;;1999.90;999.90;;;16.80;99.90;;;;;;5054711;28;20033;-71
2023/07/25 06:16:40;;;;;;;1999.90;999.90;;;16.80;99.90;;;;;;5054614;28;20033;-71
2023/07/25 06:19:06;;;;;;;1999.90;999.90;;;16.70;99.90;;;;;;5054512;28;20124;-70
2023/07/25 06:21:31;;;;;;;1999.90;999.90;;;16.60;99.90;;;;;;5054054;28;20025;-70
2023/07/25 06:23:57;;;;;;;1999.90;999.90;;;16.60;99.90;;;;;;5054264;28;20083;-72
2023/07/25 06:26:23;;;;;;;1999.90;999.90;;;16.60;99.90;;;;;;5054452;28;20450;-72
2023/07/25 06:28:49;;;;;;;1999.90;999.90;;;16.60;99.90;;;;;;5054244;28;20514;-71
2023/07/25 06:31:14;;;;;;;1999.90;999.90;;;16.50;99.90;;;;;;5036284;28;20574;-72
2023/07/25 06:33:40;;;;;;;1999.90;999.90;;;16.60;99.90;;;;;;5054365;28;20108;-72
2023/07/25 06:36:05;;;;;;;1999.90;999.90;;;16.60;99.90;;;;;;5054491;28;20029;-72
2023/07/25 06:38:31;;;;;;;1999.90;999.90;;;16.70;99.90;;;;;;5053936;28;20073;-72
2023/07/25 06:40:57;;;;;;;1999.90;999.90;;;16.80;99.90;;;;;;5053040;28;20036;-71
2023/07/25 06:43:22;;;;;;;1999.90;999.90;;;16.80;99.90;;;;;;5054412;28;20032;-72
2023/07/25 06:45:50;;;;;;;1999.90;999.90;;;16.90;99.90;;;;;;5054374;28;20569;-72
2023/07/25 06:48:15;;;;;;;1999.90;999.90;;;16.90;99.90;;;;;;5054012;28;20037;-72
2023/07/25 06:50:42;;;;;;;1999.90;999.90;;;17.00;99.90;;;;;;5054251;28;20476;-72
2023/07/25 06:53:07;;;;;;;1999.90;999.90;;;17.10;99.90;;;;;;5054014;28;20812;-71
2023/07/25 06:55:34;;;;;;;1999.90;999.90;;;17.20;99.90;;;;;;5054962;28;20033;-71
2023/07/25 06:58:00;;;;;;;1999.90;999.90;;;17.20;99.90;;;;;;5073698;28;20063;-72
2023/07/25 07:00:27;;;;;;;1999.90;999.90;;;17.30;99.90;;;;;;5074628;28;20073;-74
2023/07/25 07:02:54;;;;;;;1999.90;999.90;;;17.20;99.90;;;;;;5073787;28;20068;-73
2023/07/25 07:05:19;;;;;;;1999.90;999.90;;;17.10;99.90;;;;;;5074037;28;20067;-74
2023/07/25 07:07:45;;;;;;;1999.90;999.90;;;17.00;99.90;;;;;;5056158;28;20440;-73
2023/07/25 07:10:10;;;;;;;1999.90;999.90;;;16.90;99.90;;;;;;5074003;28;20124;-73
2023/07/25 07:12:36;;;;;;;1999.90;999.90;;;17.10;99.90;;;;;;5073847;28;20475;-73
2023/07/25 07:15:01;;;;;;;1999.90;999.90;;;17.10;99.90;;;;;;5055404;28;20033;-73
2023/07/25 07:17:27;;;;;;;1999.90;999.90;;;17.10;99.90;;;;;;5073561;28;20486;-74
2023/07/25 07:19:54;;;;;;;1999.90;999.90;;;17.20;99.90;;;;;;5055555;28;20041;-73
2023/07/25 07:22:19;;;;;;;1999.90;999.90;;;17.30;99.90;;;;;;5073728;28;20021;-73
2023/07/25 07:24:45;;;;;;;1999.90;999.90;;;17.40;99.90;;;;;;5055030;28;20071;-73
2023/07/25 07:27:10;;;;;;;1999.90;999.90;;;17.60;99.90;;;;;;5073808;28;20041;-71
2023/07/25 07:29:36;;;;;;;1999.90;999.90;;;17.60;99.90;;;;;;5055502;28;20083;-73
2023/07/25 07:32:03;;;;;;;1999.90;999.90;;;17.80;99.90;;;;;;5073482;28;20112;-73
2023/07/25 07:34:28;;;;;;;1999.90;999.90;;;18.00;99.90;;;;;;5073657;28;20060;-73
2023/07/25 07:36:54;;;;;;;1999.90;999.90;;;18.40;99.90;;;;;;5055478;28;20457;-73
2023/07/25 07:39:19;;;;;;;1999.90;999.90;;;18.60;99.90;;;;;;5054847;28;20036;-73
2023/07/25 07:41:45;;;;;;;1999.90;999.90;;;18.80;99.90;;;;;;5073741;28;20037;-73
2023/07/25 07:44:10;;;;;;;1999.90;999.90;;;19.10;99.90;;;;;;5073729;28;20069;-73
2023/07/25 07:46:36;;;;;;;1999.90;999.90;;;19.40;99.90;;;;;;5072702;28;20064;-72
2023/07/25 07:49:02;;;;;;;1999.90;999.90;;;20.00;99.90;;;;;;5054044;28;20124;-73
2023/07/25 07:51:28;;;;;;;1999.90;999.90;;;20.20;99.90;;;;;;5065975;28;20041;-74
2023/07/25 07:53:53;;;;;;;1999.90;999.90;;;20.30;99.90;;;;;;5056421;28;20026;-74
2023/07/25 07:56:19;;;;;;;1999.90;999.90;;;20.30;99.90;;;;;;5056779;28;20095;-73
2023/07/25 07:58:45;;;;;;;1999.90;999.90;;;20.20;99.90;;;;;;5055125;28;20061;-72
2023/07/25 08:01:19;;;;;;;1999.90;999.90;;;20.00;99.90;;;;;;5055987;28;20129;-73
2023/07/25 08:03:46;;;;;;;1999.90;999.90;;;20.10;99.90;;;;;;5038777;28;20095;-74
2023/07/25 08:06:11;;;;;;;1999.90;999.90;;;20.20;99.90;;;;;;5056778;28;20522;-73
2023/07/25 08:08:37;;;;;;;1999.90;999.90;;;20.00;99.90;;;;;;5056855;28;20041;-73
2023/07/25 08:11:03;;;;;;;1999.90;999.90;;;19.90;99.90;;;;;;5056142;28;20076;-73
2023/07/25 08:13:28;;;;;;;1999.90;999.90;;;20.20;99.90;;;;;;5056547;28;20084;-73
2023/07/25 08:15:54;;;;;;;1999.90;999.90;;;20.30;99.90;;;;;;5056557;28;20038;-73
2023/07/25 08:18:20;;;;;;;1999.90;999.90;;;20.60;99.90;;;;;;5056318;28;20132;-74
2023/07/25 08:20:45;;;;;;;1999.90;999.90;;;21.20;99.90;;;;;;5056652;28;20021;-73
2023/07/25 08:23:12;;;;;;;1999.90;999.90;;;21.40;99.90;;;;;;5055564;28;20041;-73
2023/07/25 08:25:38;;;;;;;1999.90;999.90;;;21.40;99.90;;;;;;5055992;28;20033;-73
2023/07/25 08:28:04;;;;;;;1999.90;999.90;;;21.80;99.90;;;;;;5056154;28;20025;-74
2023/07/25 08:30:30;;;;;;;1999.90;999.90;;;21.90;99.90;;;;;;5056282;28;20505;-74
2023/07/25 08:32:55;;;;;;;1999.90;999.90;;;21.60;99.90;;;;;;5038241;28;20080;-73
2023/07/25 08:35:21;;;;;;;1999.90;999.90;;;21.30;99.90;;;;;;5056273;28;20034;-74
2023/07/25 08:37:46;;;;;;;1999.90;999.90;;;21.50;99.90;;;;;;5056208;28;20033;-73
2023/07/25 08:40:12;;;;;;;1999.90;999.90;;;21.60;99.90;;;;;;5056075;28;20041;-73
2023/07/25 08:42:42;;;;;;;1999.90;999.90;;;21.60;99.90;;;;;;5054867;28;20069;-74
2023/07/25 08:45:09;;;;;;;1999.90;999.90;;;21.90;99.90;;;;;;5055295;28;20113;-74
2023/07/25 08:47:39;;;;;;;1999.90;999.90;;;22.00;99.90;;;;;;5055737;28;20030;-73
2023/07/25 08:50:16;;;;;;;1999.90;999.90;;;22.20;99.90;;;;;;5056142;28;20029;-73
2023/07/25 08:53:04;;;;;;;1999.90;999.90;;;22.50;99.90;;;;;;5054579;28;20035;-74
2023/07/25 08:55:30;;;;;;;1999.90;999.90;;;22.80;99.90;;;;;;5056562;28;20038;-73
2023/07/25 08:57:58;;;;;;;1999.90;999.90;;;22.90;99.90;;;;;;5056901;28;20533;-73
2023/07/25 09:00:25;;;;;;;1999.90;999.90;;;23.20;99.90;;;;;;5039122;28;20045;-74
2023/07/25 09:02:51;;;;;;;1999.90;999.90;;;23.90;99.90;;;;;;5055336;28;20037;-74
2023/07/25 09:05:17;;;;;;;1999.90;999.90;;;24.10;99.90;;;;;;5055989;28;20087;-71
2023/07/25 09:07:42;;;;;;;1999.90;999.90;;;24.00;99.90;;;;;;5056119;28;20025;-71
2023/07/25 09:10:10;;;;;;;1999.90;999.90;;;23.70;99.90;;;;;;5037989;28;20025;-71
2023/07/25 09:12:35;;;;;;;1999.90;999.90;;;22.80;99.90;;;;;;5055408;28;20794;-72
2023/07/25 09:15:01;;;;;;;1999.90;999.90;;;22.00;99.90;;;;;;5056045;28;20038;-74
2023/07/25 09:17:26;;;;;;;1999.90;999.90;;;21.40;99.90;;;;;;5037583;28;20061;-72
2023/07/25 09:19:53;;;;;;;1999.90;999.90;;;20.80;99.90;;;;;;5055867;28;20049;-73
2023/07/25 09:22:29;;;;;;;1999.90;999.90;;;20.50;99.90;;;;;;5055368;28;20030;-74
2023/07/25 09:24:56;;;;;;;1999.90;999.90;;;20.50;99.90;;;;;;5055869;28;20049;-72
2023/07/25 09:27:21;;;;;;;1999.90;999.90;;;20.50;99.90;;;;;;5055863;28;20064;-72
2023/07/25 09:29:51;;;;;;;1999.90;999.90;;;20.60;99.90;;;;;;5037743;28;20069;-73
2023/07/25 09:32:25;;;;;;;1999.90;999.90;;;21.00;99.90;;;;;;5055216;28;20029;-73
2023/07/25 09:35:01;;;;;;;1999.90;999.90;;;21.70;99.90;;;;;;5055596;28;20044;-72
2023/07/25 09:37:29;;;;;;;1999.90;999.90;;;22.40;99.90;;;;;;5055195;28;20514;-72
2023/07/25 09:39:55;;;;;;;1999.90;999.90;;;22.70;99.90;;;;;;5055586;28;20042;-73
2023/07/25 09:42:22;;;;;;;1999.90;999.90;;;22.60;99.90;;;;;;5055293;28;20099;-73
2023/07/25 09:44:50;;;;;;;1999.90;999.90;;;22.60;99.90;;;;;;5055192;28;20029;-74
2023/07/25 09:47:24;;;;;;;1999.90;999.90;;;22.90;99.90;;;;;;5055535;28;20028;-72
2023/07/25 09:49:51;;;;;;;1999.90;999.90;;;23.40;99.90;;;;;;5054700;28;20029;-72
2023/07/25 09:52:17;;;;;;;1999.90;999.90;;;23.80;99.90;;;;;;5037192;28;20403;-72
2023/07/25 09:54:43;;;;;;;1999.90;999.90;;;24.00;99.90;;;;;;5055248;28;20042;-74
2023/07/25 09:57:09;;;;;;;1999.90;999.90;;;24.40;99.90;;;;;;5055488;28;20040;-73
2023/07/25 09:59:35;;;;;;;1999.90;999.90;;;24.90;99.90;;;;;;5054791;28;20553;-73
2023/07/25 10:02:03;;;;;;;1999.90;999.90;;;24.60;99.90;;;;;;5036998;28;20444;-73
2023/07/25 10:04:29;;;;;;;1999.90;999.90;;;24.30;99.90;;;;;;5055262;28;20473;-73
2023/07/25 10:06:59;;;;;;;1999.90;999.90;;;23.70;99.90;;;;;;5055394;28;20033;-74
2023/07/25 10:09:25;;;;;;;1999.90;999.90;;;23.00;99.90;;;;;;5054666;28;20064;-73
2023/07/25 10:11:53;;;;;;;1999.90;999.90;;;22.90;99.90;;;;;;5054799;28;20025;-73
2023/07/25 10:14:19;;;;;;;1999.90;999.90;;;23.30;99.90;;;;;;5054184;28;20533;-73
2023/07/25 10:16:46;;;;;;;1999.90;999.90;;;23.50;99.90;;;;;;5053952;28;20025;-73
2023/07/25 10:19:12;;;;;;;1999.90;999.90;;;23.60;99.90;;;;;;5054440;28;20052;-73
2023/07/25 10:21:53;;;;;;;1999.90;999.90;;;23.70;99.90;;;;;;5035699;28;20037;-73
2023/07/25 10:24:20;;;;;;;1999.90;999.90;;;23.80;99.90;;;;;;5054634;28;20042;-73
2023/07/25 10:26:53;;;;;;;1999.90;999.90;;;24.30;99.90;;;;;;5054249;28;20495;-71
2023/07/25 10:29:43;;;;;;;1999.90;999.90;;;24.80;99.90;;;;;;5054073;28;20040;-73
2023/07/25 10:32:16;;;;;;;1999.90;999.90;;;25.40;99.90;;;;;;5035495;28;20034;-73
2023/07/25 10:34:46;;;;;;;1999.90;999.90;;;25.60;99.90;;;;;;5054293;28;20049;-71
2023/07/25 10:37:27;;;;;;;1999.90;999.90;;;25.60;99.90;;;;;;5054205;28;20029;-72
2023/07/25 10:40:09;;;;;;;1999.90;999.90;;;25.60;98.90;;;;;;5036146;28;20044;-72
2023/07/25 10:42:42;;;;;;;1999.90;999.90;;;24.90;97.80;;;;;;5035855;28;20033;-73
2023/07/25 10:45:18;;;;;;;1999.90;999.90;;;24.10;97.90;;;;;;5054581;28;20044;-72
2023/07/25 10:47:45;;;;;;;1999.90;999.90;;;23.30;99.80;;;;;;5054295;28;20041;-72
2023/07/25 10:50:11;;;;;;;1999.90;999.90;;;22.50;99.90;;;;;;5054689;28;20034;-79
2023/07/25 10:52:44;;;;;;;1999.90;999.90;;;19.20;99.90;;;;;;5054035;28;20483;-81
2023/07/25 10:55:13;;;;;;;1999.90;999.90;;;17.20;99.90;;;;;;5054030;28;20084;-79
2023/07/25 10:57:39;;;;;;;1999.90;999.90;;;;;;;;;;5053856;28;20048;-79
2023/07/25 11:00:08;;;;;;;1999.90;999.90;;;;;;;;;;5054587;28;20029;-78
2023/07/25 11:02:40;;;;;;;1999.90;999.90;;;;;;;;;;5036238;28;20068;-78
2023/07/25 11:05:12;;;;;;;1999.90;999.90;;;;;;;;;;5054316;28;20108;-77
2023/07/25 11:07:47;;;;;;;1999.90;999.90;;;18.30;99.90;;;;;;5053752;28;20033;-76
2023/07/25 11:10:31;;;;;;;1999.90;999.90;;;18.50;99.90;;;;;;5054313;28;20505;-77
2023/07/25 11:12:58;;;;;;;1999.90;999.90;;;19.70;99.90;;;;;;5048513;28;20034;-77
2023/07/25 11:15:24;;;;;;;1999.90;999.90;;;20.40;99.90;;;;;;5033340;28;20496;-74
2023/07/25 11:17:50;;;;;;;1999.90;999.90;;;20.10;99.90;;;;;;5033961;28;20030;-76
2023/07/25 11:20:21;;;;;;;1999.90;999.90;;;20.10;99.90;;;;;;5033981;28;20109;-74
2023/07/25 11:22:51;;;;;;;1999.90;999.90;;;19.50;99.90;;;;;;5033619;28;20022;-73
2023/07/25 11:25:17;;;;;;;1999.90;999.90;;;18.90;99.90;;;;;;5033462;28;20034;-75
2023/07/25 11:27:44;;;;;;;1999.90;999.90;;;18.50;99.90;;;;;;5036668;28;20042;-75
2023/07/25 11:30:15;;;;;;;1999.90;999.90;;;18.40;99.90;;;;;;5037927;28;20462;-75
2023/07/25 11:32:52;;;;;;;1999.90;999.90;;;18.60;99.90;;;;;;5037508;28;20048;-73
2023/07/25 11:35:18;;;;;;;1999.90;999.90;;;19.50;99.90;;;;;;5052751;28;20045;-70
2023/07/25 11:37:45;;;;;;;1999.90;999.90;;;19.50;99.90;;;;;;5057353;28;20040;-71
2023/07/25 11:40:18;;;;;;;1999.90;999.90;;;19.40;99.90;;;;;;5052628;28;20063;-70
2023/07/25 11:42:45;;;;;;;1999.90;999.90;;;19.50;99.90;;;;;;5054891;28;20112;-73
2023/07/25 11:45:13;;;;;;;1999.90;999.90;;;19.40;99.90;;;;;;5038070;28;20099;-70
2023/07/25 11:47:41;;;;;;;1999.90;999.90;;;19.70;99.90;;;;;;5056858;28;20489;-70
2023/07/25 11:50:08;;;;;;;1999.90;999.90;;;19.90;99.90;;;;;;5056892;28;20025;-69
2023/07/25 11:52:35;;;;;;;1999.90;999.90;;;19.60;99.90;;;;;;5038568;28;20095;-70
2023/07/25 11:55:02;;;;;;;1999.90;999.90;;;19.80;99.90;;;;;;5057140;28;20543;-72
2023/07/25 11:57:28;;;;;;;1999.90;999.90;;;19.80;99.90;;;;;;5038141;28;20045;-70
2023/07/25 11:59:54;;;;;;;1999.90;999.90;;;19.30;99.90;;;;;;5055193;28;20041;-72